Cuiabá, Brasil

05:56 AM AMT em 20 de Setembro de 2014 (GMT -0400)
Marechal Rondon International | Change Station
CLOSE
Current Station
Aeroporto
Location: Cuiaba Marechal Ron,
Altitude: 617 ft
Estações Meteorológicas Próximas

Elev 617 ft 15.65 °S, 56.12 °W | Updated 56 minutes ago

Clear
Céu Limpo
84 °F
Aparente 87 °F
N
8
Vento Variável Vento de NNO

Hoje
Máxima -- | Mínima -- °F
--% Possibilidade de Precip.
Ontem
Máxima -- | Mínima -- °F
Precip. -- pol
5:35 AM 5:40 PM
Quarto minguante, 13% visible
Pressão 29.86 pol
Visibilidade -9999.0 milhas
Nuvens
Índice de Calor 87 °F
Ponto de Orvalho 68 °F
Humidade 58%
Chuva 0.00 pol
Altura de Neve Não disponível
UV Não disponível
Pólen Não disponível
Qualidade do Ar Não disponível
Flu Activity Não disponível
METAR SBCY 200900Z 33007KT CAVOK 29/20 Q1011

More Conditions Fewer Conditions

Pressão 29.86 pol
Visibilidade -9999.0 milhas
Nuvens
Índice de Calor 87 °F
Ponto de Orvalho 68 °F
Humidade 58%
Chuva 0.00 pol
Altura de Neve Não disponível
UV Não disponível
Pólen Não disponível
Qualidade do Ar Não disponível
Flu Activity Não disponível
METAR SBCY 200900Z 33007KT CAVOK 29/20 Q1011

More Conditions Fewer Conditions

10-Day Weather Forecast

Almanac

Astronomia

Sep. 20, 2014 Nascer Pôr
Hora atual 05:35 AMT 17:40 AMT
Crepúsculo civil 05:14 AMT 18:01 AMT
Crepúsculo náutico 04:49 AMT 18:26 AMT
Crepúsculo astronómico 04:24 AMT 18:51 AMT
Lua 03:01 AMT 14:56 AMT
Comprimento da luz visível 12h 47m
Duração do Dia
12h 04m
Tomorrow will be 0m 51s longer.
Quarto minguante, 13% of the Moon is Illuminated
Hoje
Quarto minguante
Set 24
Nova
Out 1
Quarto crescente
Out 8
Lua cheia
Out 15
Quarto minguante

Extremos de ontem

Altitude na localidade Altura mais baixa na localidade

Community

WunderPhotos

Upload Photos

1,754,794 fotografias inseridas!

WunderBlogs® & News

Nearby

Actividade Sísmisca

Cidade Distância Mag. Hora & Data
Não há notícias de atividade sísmica recente perto de si.
Mínima magnitude apresentada é 2.5.

Temperaturas das Águas Costeiras

Local Temperatura
Não há estações a reportar dados

Estações Meteorológicas Próximas